Time;durP1;ratioP1;P1;durP2;ratioP2;P2;SDS_P1;SDS_P2;PMS_P1;PMS_P2;Temp;Humidity;BMP_temperature;BMP_pressure;BME280_temperature;BME280_humidity;BME280_pressure;Samples;Min_cycle;Max_cycle;Signal;HPM_P1;HPM_P2
2022/11/04 00:01:56;;;;;;;46.75;26.60;;;;;;;12.45;51.88;99669.09;5050048;28;20083;-65
2022/11/04 00:04:24;;;;;;;52.13;27.15;;;;;;;12.43;51.84;99670.59;5036621;28;20108;-65
2022/11/04 00:06:51;;;;;;;52.65;25.40;;;;;;;12.26;52.86;99668.75;5031457;28;20026;-66
2022/11/04 00:09:21;;;;;;;48.38;26.77;;;;;;;12.27;52.95;99670.41;5031302;28;20136;-66
2022/11/04 00:14:32;;;;;;;70.35;26.92;;;;;;;12.10;53.48;99674.16;5033581;28;20040;-65
2022/11/04 00:30:56;;;;;;;57.72;28.38;;;;;;;10.96;56.50;99679.06;5038779;28;20099;-66
2022/11/04 00:33:26;;;;;;;54.30;31.17;;;;;;;10.86;57.09;99676.63;5048471;28;20025;-66
2022/11/04 00:35:54;;;;;;;61.75;32.58;;;;;;;10.24;57.78;99682.22;5050949;28;20079;-65
2022/11/04 00:38:19;;;;;;;52.65;29.33;;;;;;;10.23;58.83;99686.19;5050929;28;20080;-65
2022/11/04 00:40:45;;;;;;;48.17;27.45;;;;;;;10.11;58.83;99679.25;5046317;28;20025;-65
2022/11/04 00:43:10;;;;;;;50.50;26.65;;;;;;;10.31;57.88;99684.53;5031711;28;20033;-66
2022/11/04 00:45:36;;;;;;;52.33;25.10;;;;;;;10.44;57.57;99683.56;5040588;28;20060;-65
2022/11/04 00:48:02;;;;;;;47.22;25.15;;;;;;;10.63;56.54;99671.25;5046344;28;20060;-65
2022/11/04 00:50:28;;;;;;;53.75;26.02;;;;;;;10.70;56.54;99667.94;5030448;28;20049;-66
2022/11/04 00:53:00;;;;;;;43.13;24.95;;;;;;;10.80;55.89;99670.41;5029448;28;20069;-65
2022/11/04 00:55:26;;;;;;;53.97;28.08;;;;;;;10.76;56.70;99670.22;5031350;28;20033;-65
2022/11/04 00:57:52;;;;;;;54.83;26.70;;;;;;;10.84;55.55;99676.13;5033686;28;20116;-65
2022/11/04 01:00:18;;;;;;;55.35;27.00;;;;;;;10.87;55.95;99670.69;5034754;28;20026;-65
2022/11/04 01:02:44;;;;;;;52.92;26.00;;;;;;;10.98;54.91;99681.53;5033474;28;20033;-65
2022/11/04 01:05:10;;;;;;;51.63;24.98;;;;;;;11.04;54.63;99674.59;5037018;28;20412;-66
2022/11/04 01:07:35;;;;;;;47.38;25.02;;;;;;;11.08;55.08;99675.59;5033399;28;20111;-66
2022/11/04 01:10:01;;;;;;;48.92;25.20;;;;;;;11.13;54.89;99677.41;5033306;28;20025;-67
2022/11/04 01:12:26;;;;;;;54.50;26.67;;;;;;;11.14;55.15;99670.66;5034570;28;20036;-66
2022/11/04 01:14:51;;;;;;;47.97;26.15;;;;;;;11.15;54.95;99673.09;5048031;28;20099;-65
2022/11/04 01:17:17;;;;;;;49.40;26.88;;;;;;;11.17;55.30;99662.41;5038422;28;20036;-65
2022/11/04 01:19:42;;;;;;;54.38;25.83;;;;;;;11.06;55.99;99675.13;5054201;28;20052;-65
2022/11/04 01:22:08;;;;;;;52.47;26.58;;;;;;;10.86;56.78;99665.41;5053175;28;20075;-66
2022/11/04 01:24:33;;;;;;;43.72;25.88;;;;;;;10.42;58.19;99669.09;5038217;28;20021;-65
2022/11/04 01:26:59;;;;;;;47.72;27.30;;;;;;;10.29;58.87;99658.88;5038848;28;20554;-65
2022/11/04 01:29:24;;;;;;;40.63;26.50;;;;;;;9.85;60.86;99662.44;5036213;28;20504;-65
2022/11/04 01:31:50;;;;;;;55.13;29.40;;;;;;;9.80;61.14;99662.59;5033005;28;20060;-65
2022/11/04 01:34:15;;;;;;;47.45;27.02;;;;;;;10.21;59.34;99668.91;5034223;28;20044;-65
2022/11/04 01:36:41;;;;;;;52.13;28.27;;;;;;;10.15;59.56;99657.06;5032702;28;20033;-65
2022/11/04 01:39:06;;;;;;;59.13;27.92;;;;;;;10.06;58.97;99659.03;5034039;28;20575;-66
2022/11/04 01:41:32;;;;;;;50.78;26.90;;;;;;;10.32;58.71;99647.03;5035630;28;20116;-65
2022/11/04 01:44:01;;;;;;;49.83;26.45;;;;;;;10.40;57.87;99649.00;5033066;28;20021;-66
2022/11/04 01:46:32;;;;;;;50.72;25.38;;;;;;;10.57;57.73;99647.38;5032399;28;20034;-65
2022/11/04 01:49:08;;;;;;;47.25;26.95;;;;;;;10.55;57.36;99638.50;5033897;28;20411;-65
2022/11/04 01:51:36;;;;;;;50.53;25.20;;;;;;;10.56;57.77;99645.72;5033871;28;20036;-65
2022/11/04 01:54:04;;;;;;;44.88;25.60;;;;;;;10.64;57.08;99634.53;5032464;28;20178;-65
2022/11/04 01:56:31;;;;;;;45.25;25.73;;;;;;;10.69;57.05;99639.13;5040565;28;20061;-65
2022/11/04 01:59:02;;;;;;;59.05;25.55;;;;;;;10.69;56.67;99641.94;5047652;28;20025;-65
2022/11/04 02:01:27;;;;;;;;;;;;;;;10.70;57.62;99642.75;5038091;28;20025;-65
2022/11/04 02:04:24;;;;;;;47.10;24.70;;;;;;;10.65;57.12;99632.56;5035337;28;19909;-66
2022/11/04 02:06:45;;;;;;;47.97;24.53;;;;;;;10.74;57.09;99630.59;5033430;28;20041;-65
2022/11/04 02:09:12;;;;;;;49.47;25.63;;;;;;;10.75;57.01;99620.19;5033147;28;20420;-65
2022/11/04 02:14:21;;;;;;;51.40;27.15;;;;;;;10.81;56.75;99616.88;5032983;28;20086;-65
2022/11/04 02:16:48;;;;;;;49.22;25.90;;;;;;;10.82;57.01;99618.53;5048567;28;20480;-65
2022/11/04 02:19:45;;;;;;;44.80;25.33;;;;;;;10.81;56.62;99625.28;5042400;28;20036;-65
2022/11/04 02:22:38;;;;;;;43.63;25.17;;;;;;;10.80;56.43;99636.81;5031506;28;20063;-66
2022/11/04 02:25:31;;;;;;;42.45;25.35;;;;;;;10.74;56.87;99630.59;5033252;28;20109;-65
2022/11/04 02:28:31;;;;;;;51.03;28.10;;;;;;;10.62;57.04;99624.84;5034011;28;20119;-66
2022/11/04 02:31:11;;;;;;;49.22;26.20;;;;;;;10.47;58.03;99620.59;5033012;28;20041;-65
2022/11/04 02:33:54;;;;;;;50.10;27.95;;;;;;;10.46;58.35;99604.97;5045719;28;20469;-65
2022/11/04 02:36:31;;;;;;;51.40;27.15;;;;;;;10.51;58.07;99608.41;5048272;28;20033;-65
2022/11/04 02:39:14;;;;;;;40.78;25.25;;;;;;;10.57;57.96;99609.06;5033128;28;20029;-65
2022/11/04 02:41:58;;;;;;;48.60;24.88;;;;;;;10.50;58.57;99611.53;5052929;28;20024;-65
2022/11/04 02:44:53;;;;;;;43.50;26.02;;;;;;;10.38;57.94;99610.19;5041480;28;20408;-65
2022/11/04 02:47:24;;;;;;;50.05;25.05;;;;;;;10.37;57.71;99602.94;5013081;28;20044;-65
2022/11/04 02:49:56;;;;;;;54.25;25.27;;;;;;;10.35;58.09;99607.22;5032743;28;20048;-65
2022/11/04 02:52:35;;;;;;;47.08;25.67;;;;;;;10.36;57.98;99608.88;5042522;28;20083;-65
2022/11/04 02:55:11;;;;;;;48.00;24.65;;;;;;;10.21;58.55;99605.41;5039584;28;20108;-65
2022/11/04 02:57:40;;;;;;;50.38;25.83;;;;;;;10.09;58.13;99610.84;5032630;28;20052;-65
2022/11/04 03:00:09;;;;;;;40.33;24.08;;;;;;;10.03;58.05;99609.38;5031613;28;20103;-65
2022/11/04 03:02:44;;;;;;;47.65;27.70;;;;;;;9.84;58.14;99607.72;5031893;28;20112;-65
2022/11/04 03:05:16;;;;;;;47.78;28.10;;;;;;;10.05;57.93;99612.66;5050365;28;20040;-65
2022/11/04 03:07:45;;;;;;;45.72;27.48;;;;;;;10.03;58.03;99604.59;5052305;28;20063;-66
2022/11/04 03:10:17;;;;;;;43.63;26.35;;;;;;;10.08;57.90;99612.00;5052365;28;20092;-65
2022/11/04 03:12:49;;;;;;;49.42;28.17;;;;;;;10.05;57.56;99605.09;5050952;28;20115;-65
2022/11/04 03:15:25;;;;;;;47.53;27.52;;;;;;;10.10;57.07;99615.28;5041320;28;20017;-65
2022/11/04 03:18:21;;;;;;;50.83;28.83;;;;;;;10.13;57.53;99614.63;5034172;28;20017;-65
2022/11/04 03:20:49;;;;;;;65.40;27.92;;;;;;;10.08;56.99;99612.84;5031341;28;20104;-66
2022/11/04 03:23:14;;;;;;;46.45;26.13;;;;;;;9.89;58.84;99615.91;5032304;28;20381;-65
2022/11/04 03:25:44;;;;;;;47.65;24.75;;;;;;;9.99;59.02;99617.59;5052040;28;20032;-65
2022/11/04 03:28:29;;;;;;;44.58;26.73;;;;;;;9.98;59.04;99621.53;5041163;28;20117;-65
2022/11/04 03:30:57;;;;;;;51.75;25.13;;;;;;;9.94;59.29;99620.53;5030972;28;20041;-65
2022/11/04 03:33:25;;;;;;;49.90;26.40;;;;;;;9.68;61.32;99624.94;5032199;28;20403;-65
2022/11/04 03:35:51;;;;;;;49.00;25.70;;;;;;;9.79;60.11;99616.25;5034826;28;20443;-65
2022/11/04 03:38:17;;;;;;;51.88;27.00;;;;;;;9.93;59.83;99622.53;5050394;28;20031;-65
2022/11/04 03:40:42;;;;;;;56.72;25.67;;;;;;;9.74;60.86;99619.19;5046328;28;20098;-65
2022/11/04 03:43:21;;;;;;;48.97;23.58;;;;;;;9.67;61.12;99605.72;5051678;28;20574;-66
2022/11/04 03:45:47;;;;;;;41.63;22.30;;;;;;;9.62;61.05;99606.69;5045957;28;20172;-65
2022/11/04 03:48:13;;;;;;;44.83;27.15;;;;;;;9.66;60.64;99607.69;5031899;28;20195;-65
2022/11/04 03:50:46;;;;;;;48.25;30.92;;;;;;;9.32;62.67;99609.25;5031629;28;20052;-65
2022/11/04 03:53:13;;;;;;;51.75;25.17;;;;;;;9.23;62.45;99616.75;5030215;28;20029;-65
2022/11/04 03:56:01;;;;;;;48.67;24.23;;;;;;;9.13;63.11;99604.72;5030284;28;20037;-65
2022/11/04 03:59:03;;;;;;;52.05;24.55;;;;;;;8.75;64.22;99605.19;5030140;28;20085;-65
2022/11/04 04:01:50;;;;;;;43.67;24.92;;;;;;;8.95;63.76;99620.56;5030851;28;20538;-66
2022/11/04 04:04:29;;;;;;;41.88;25.38;;;;;;;9.17;62.55;99607.69;5032037;28;20498;-65
2022/11/04 04:07:09;;;;;;;44.22;24.27;;;;;;;9.27;62.13;99607.41;5030622;28;20021;-65
2022/11/04 04:09:45;;;;;;;53.67;26.42;;;;;;;9.40;61.77;99607.63;5030589;28;20056;-66
2022/11/04 04:12:26;;;;;;;49.60;24.90;;;;;;;9.40;61.66;99607.63;5031620;28;20549;-65
2022/11/04 04:14:57;;;;;;;59.85;25.67;;;;;;;9.44;61.31;99610.59;5033959;28;20043;-65
2022/11/04 04:17:47;;;;;;;43.58;23.80;;;;;;;9.17;62.86;99604.06;5051779;28;20112;-65
2022/11/04 04:20:19;;;;;;;;;;;;;;;9.35;62.10;99610.53;5050679;28;20475;-65
2022/11/04 04:28:42;;;;;;;41.83;22.75;;;;;;;9.35;60.75;99600.22;5031554;28;20511;-65
2022/11/04 04:31:10;;;;;;;59.92;24.80;;;;;;;9.20;60.74;99600.66;5035050;28;20574;-65
2022/11/04 04:33:36;;;;;;;52.42;23.80;;;;;;;9.09;61.22;99606.53;5033393;28;20067;-65
2022/11/04 04:36:05;;;;;;;53.67;24.70;;;;;;;9.04;61.61;99603.88;5036137;28;20403;-65
2022/11/04 04:47:09;;;;;;;57.08;24.75;;;;;;;8.93;61.90;99617.28;5043935;28;20107;-66
2022/11/04 04:49:35;;;;;;;57.97;23.65;;;;;;;9.05;60.86;99611.13;5030891;28;20022;-67
2022/11/04 04:52:03;;;;;;;41.03;23.08;;;;;;;9.19;59.67;99607.41;5035015;28;20467;-65
2022/11/04 04:54:28;;;;;;;38.28;21.60;;;;;;;9.12;59.91;99617.03;5030877;28;20024;-65
2022/11/04 04:56:54;;;;;;;48.90;25.35;;;;;;;9.15;59.81;99614.75;5029602;28;20021;-65
2022/11/04 04:59:19;;;;;;;54.42;22.92;;;;;;;9.05;60.11;99613.91;5032200;28;20570;-65
2022/11/04 05:01:45;;;;;;;42.88;22.00;;;;;;;8.96;60.26;99610.25;5039325;28;20044;-65
2022/11/04 05:04:10;;;;;;;55.60;25.17;;;;;;;8.96;60.63;99610.25;5042312;28;20022;-65
2022/11/04 05:06:36;;;;;;;57.65;28.85;;;;;;;9.02;60.52;99613.72;5029993;28;20061;-66
2022/11/04 05:09:01;;;;;;;51.03;27.02;;;;;;;9.02;60.01;99608.94;5030731;28;20097;-65
2022/11/04 05:11:27;;;;;;;50.97;27.60;;;;;;;8.90;60.98;99615.13;5046130;28;20480;-65
2022/11/04 05:13:53;;;;;;;65.53;28.85;;;;;;;8.99;60.31;99617.97;5046729;28;20082;-65
2022/11/04 05:16:18;;;;;;;48.70;26.63;;;;;;;8.97;60.90;99617.47;5032661;28;20026;-65
2022/11/04 05:18:43;;;;;;;56.63;25.95;;;;;;;9.08;62.08;99618.00;5029386;28;20506;-65
2022/11/04 05:21:13;;;;;;;44.75;27.63;;;;;;;9.06;61.21;99623.09;5029287;28;20056;-65
2022/11/04 05:23:39;;;;;;;53.15;26.25;;;;;;;8.96;61.15;99619.41;5030619;28;20113;-65
2022/11/04 05:26:04;;;;;;;49.55;27.75;;;;;;;9.10;61.63;99622.13;5030734;28;20100;-65
2022/11/04 05:28:30;;;;;;;63.95;26.27;;;;;;;9.23;61.16;99639.09;5033674;28;20025;-65
2022/11/04 05:30:56;;;;;;;44.53;27.02;;;;;;;9.22;60.96;99637.44;5041920;28;20056;-64
2022/11/04 05:33:21;;;;;;;57.65;25.02;;;;;;;9.37;61.06;99634.22;5049052;28;20058;-65
2022/11/04 05:35:47;;;;;;;57.50;25.05;;;;;;;9.40;61.11;99639.13;5032359;28;20068;-67
2022/11/04 05:38:12;;;;;;;64.88;25.95;;;;;;;9.38;61.18;99640.63;5029186;28;20029;-67
2022/11/04 05:40:38;;;;;;;75.32;27.40;;;;;;;9.34;59.90;99632.06;5042076;28;20513;-64
2022/11/04 05:43:03;;;;;;;70.85;26.17;;;;;;;9.32;60.68;99637.16;5050019;28;20033;-65
2022/11/04 05:45:29;;;;;;;60.67;26.98;;;;;;;9.40;60.49;99641.94;5034875;28;20474;-66
2022/11/04 05:48:02;;;;;;;61.53;26.10;;;;;;;9.49;60.40;99647.56;5035843;28;20033;-64
2022/11/04 05:50:30;;;;;;;57.25;25.25;;;;;;;9.50;60.73;99653.97;5039621;28;20087;-64
2022/11/04 05:52:59;;;;;;;35.90;22.60;;;;;;;9.56;60.32;99658.25;5033633;28;20116;-65
2022/11/04 05:55:26;;;;;;;44.60;22.13;;;;;;;9.60;60.97;99658.44;5033728;28;20029;-67
2022/11/04 05:57:52;;;;;;;41.08;22.23;;;;;;;9.65;60.70;99656.31;5033905;28;20109;-67
2022/11/04 06:00:18;;;;;;;53.45;20.08;;;;;;;9.83;60.43;99664.72;5037784;28;20044;-67
2022/11/04 06:02:44;;;;;;;35.70;22.88;;;;;;;9.97;60.33;99667.41;5029272;28;20021;-68
2022/11/04 06:05:09;;;;;;;38.20;21.05;;;;;;;10.13;60.04;99667.72;5037813;28;20057;-67
2022/11/04 06:07:35;;;;;;;42.28;20.77;;;;;;;10.20;59.69;99670.88;5029818;28;20032;-67
2022/11/04 06:10:00;;;;;;;47.97;21.98;;;;;;;10.18;60.50;99670.38;5040875;28;20103;-66
2022/11/04 06:12:26;;;;;;;39.45;20.45;;;;;;;10.23;60.19;99669.41;5039998;28;21281;-66
2022/11/04 06:14:51;;;;;;;42.20;21.30;;;;;;;10.24;60.61;99671.84;5035635;28;20029;-65
2022/11/04 06:17:20;;;;;;;49.67;23.08;;;;;;;10.35;60.53;99674.31;5036083;28;20033;-68
2022/11/04 06:19:46;;;;;;;49.88;23.70;;;;;;;10.53;60.21;99670.41;5036463;28;20514;-66
2022/11/04 06:22:14;;;;;;;36.17;21.55;;;;;;;10.59;60.54;99670.25;5030327;28;20028;-65
2022/11/04 06:24:40;;;;;;;53.33;24.60;;;;;;;10.67;60.02;99673.03;5031409;28;20521;-65
2022/11/04 06:27:05;;;;;;;46.03;22.15;;;;;;;10.63;60.56;99677.66;5035012;28;20026;-66
2022/11/04 06:29:31;;;;;;;39.22;20.88;;;;;;;10.71;60.15;99678.78;5031206;28;20415;-66
2022/11/04 06:31:57;;;;;;;39.35;21.05;;;;;;;10.81;60.49;99672.84;5036272;28;20747;-65
2022/11/04 06:34:22;;;;;;;54.40;22.77;;;;;;;11.05;59.65;99673.47;5035041;28;20101;-65
2022/11/04 06:36:48;;;;;;;36.78;20.80;;;;;;;10.91;60.27;99677.25;5037122;28;20377;-65
2022/11/04 06:39:14;;;;;;;37.88;20.85;;;;;;;11.04;59.77;99675.44;5042674;28;20052;-65
2022/11/04 06:41:40;;;;;;;45.45;21.08;;;;;;;11.23;59.75;99680.66;5047192;28;20056;-65
2022/11/04 06:44:05;;;;;;;63.38;21.52;;;;;;;11.35;59.37;99685.56;5041447;28;20024;-67
2022/11/04 06:46:37;;;;;;;52.53;24.83;;;;;;;11.55;58.84;99685.97;5034768;28;20547;-66
2022/11/04 06:49:10;;;;;;;49.05;24.35;;;;;;;11.48;59.67;99685.69;5045673;28;20071;-67
2022/11/04 06:51:35;;;;;;;48.80;23.27;;;;;;;11.45;59.67;99680.72;5038989;28;20029;-66
2022/11/04 06:54:01;;;;;;;48.88;23.73;;;;;;;11.77;58.65;99684.06;5031896;28;20514;-66
2022/11/04 06:56:26;;;;;;;57.28;25.85;;;;;;;11.97;58.48;99684.44;5035508;28;20033;-65
2022/11/04 06:58:53;;;;;;;56.42;27.40;;;;;;;12.14;57.72;99687.16;5035048;28;20021;-66
2022/11/04 07:01:21;;;;;;;48.03;28.55;;;;;;;11.96;58.18;99675.19;5032478;28;20022;-69
2022/11/04 07:03:53;;;;;;;56.72;31.33;;;;;;;12.11;58.22;99681.41;5035316;28;20040;-65
2022/11/04 07:06:20;;;;;;;58.92;31.65;;;;;;;12.18;58.21;99681.69;5032447;28;20040;-65
2022/11/04 07:08:46;;;;;;;58.28;30.90;;;;;;;12.16;58.47;99673.59;5032442;28;20017;-66
2022/11/04 07:11:12;;;;;;;55.50;31.85;;;;;;;12.10;58.48;99680.59;5034812;28;20029;-66
2022/11/04 07:13:37;;;;;;;61.13;29.13;;;;;;;12.39;57.97;99673.28;5045998;28;20052;-66
2022/11/04 07:16:05;;;;;;;44.08;25.05;;;;;;;12.49;58.07;99678.47;5034760;28;20078;-66
2022/11/04 07:18:30;;;;;;;48.10;25.58;;;;;;;12.48;58.34;99671.22;5033465;28;20024;-66
2022/11/04 07:20:57;;;;;;;38.30;22.52;;;;;;;12.47;58.75;99666.78;5036121;28;20046;-67
2022/11/04 07:23:23;;;;;;;42.10;21.73;;;;;;;12.33;59.40;99664.25;5044177;28;20427;-67
2022/11/04 07:25:49;;;;;;;39.65;22.05;;;;;;;12.50;59.10;99662.47;5041663;28;20016;-65
2022/11/04 07:28:15;;;;;;;39.53;22.42;;;;;;;12.62;58.52;99650.47;5039326;28;20020;-67
2022/11/04 07:30:40;;;;;;;45.88;23.05;;;;;;;12.53;59.30;99641.31;5035879;28;20148;-67
2022/11/04 07:33:06;;;;;;;39.08;22.55;;;;;;;12.71;59.29;99647.56;5043487;28;20037;-67
2022/11/04 07:35:31;;;;;;;36.80;22.50;;;;;;;12.52;59.53;99640.50;5048583;28;20029;-67
2022/11/04 07:37:57;;;;;;;40.67;23.60;;;;;;;12.42;60.10;99638.91;5048430;28;20028;-67
2022/11/04 07:40:22;;;;;;;39.40;22.55;;;;;;;12.74;59.23;99630.88;5046788;28;20120;-67
2022/11/04 07:42:47;;;;;;;35.45;22.67;;;;;;;13.02;58.49;99629.44;5031900;28;20484;-67
2022/11/04 07:45:13;;;;;;;54.53;25.52;;;;;;;12.84;59.19;99624.00;5031612;28;20049;-67
2022/11/04 07:47:38;;;;;;;52.92;24.50;;;;;;;13.25;57.72;99620.56;5033814;28;20022;-69
2022/11/04 07:50:04;;;;;;;40.08;24.52;;;;;;;13.48;57.12;99618.16;5037279;28;20020;-68
2022/11/04 07:52:30;;;;;;;43.88;23.98;;;;;;;13.78;56.10;99617.06;5050376;28;20479;-65
2022/11/04 07:54:55;;;;;;;37.72;21.70;;;;;;;13.93;55.72;99613.53;5049160;28;20033;-66
2022/11/04 07:57:21;;;;;;;39.75;22.80;;;;;;;13.95;55.40;99621.63;5031954;28;20026;-66
2022/11/04 07:59:47;;;;;;;39.80;23.35;;;;;;;13.65;56.80;99616.28;5034813;28;20037;-67
2022/11/04 08:02:12;;;;;;;42.20;24.88;;;;;;;13.75;55.92;99599.75;5044266;28;20115;-68
2022/11/04 08:04:38;;;;;;;46.85;25.02;;;;;;;13.99;55.38;99597.22;5033808;28;20024;-68
2022/11/04 08:07:07;;;;;;;45.15;25.90;;;;;;;13.48;57.24;99602.13;5041591;28;20025;-71
2022/11/04 08:09:32;;;;;;;46.88;24.60;;;;;;;13.48;57.40;99595.66;5029878;28;20117;-70
2022/11/04 08:11:58;;;;;;;44.13;22.65;;;;;;;13.76;56.99;99595.75;5033549;28;20128;-66
2022/11/04 08:14:23;;;;;;;46.60;26.25;;;;;;;14.01;56.80;99584.47;5031816;28;20485;-68
2022/11/04 08:16:50;;;;;;;38.58;24.27;;;;;;;14.22;55.40;99594.72;5031807;28;20044;-68
2022/11/04 08:19:16;;;;;;;43.08;24.95;;;;;;;14.47;54.65;99577.75;5031435;28;20033;-67
2022/11/04 08:21:41;;;;;;;34.72;23.30;;;;;;;14.42;54.76;99573.19;5031181;28;20030;-67
2022/11/04 08:24:07;;;;;;;35.95;22.70;;;;;;;13.99;56.20;99585.97;5031423;28;20500;-69
2022/11/04 08:26:33;;;;;;;47.35;24.30;;;;;;;14.33;55.01;99578.13;5029963;28;20029;-66
2022/11/04 08:29:00;;;;;;;34.45;22.77;;;;;;;14.82;53.87;99579.09;5038767;28;20079;-69
2022/11/04 08:31:27;;;;;;;38.33;23.58;;;;;;;14.60;54.77;99572.88;5043412;28;20109;-69
2022/11/04 08:33:54;;;;;;;55.70;25.17;;;;;;;14.97;54.19;99574.66;5047613;28;20053;-69
2022/11/04 08:36:23;;;;;;;59.45;24.52;;;;;;;14.90;53.75;99568.84;5033520;28;20171;-67
2022/11/04 08:38:48;;;;;;;46.25;26.60;;;;;;;14.80;53.75;99562.59;5029849;28;20086;-65
2022/11/04 08:41:18;;;;;;;47.55;26.42;;;;;;;14.83;53.81;99556.22;5029703;28;20026;-67
2022/11/04 08:43:45;;;;;;;50.95;25.33;;;;;;;14.99;53.22;99550.59;5031006;28;20026;-66
2022/11/04 08:46:11;;;;;;;49.65;23.50;;;;;;;15.08;53.07;99550.41;5029662;28;20459;-64
2022/11/04 08:48:38;;;;;;;48.28;24.77;;;;;;;15.13;53.37;99549.31;5031119;28;20524;-65
2022/11/04 08:51:06;;;;;;;36.13;23.95;;;;;;;15.08;53.60;99543.94;5037892;28;20479;-65
2022/11/04 08:53:32;;;;;;;40.45;23.75;;;;;;;15.25;53.99;99545.56;5049621;28;20051;-65
2022/11/04 08:55:57;;;;;;;38.17;24.75;;;;;;;15.11;53.63;99540.44;5050753;28;20104;-66
2022/11/04 08:58:23;;;;;;;46.95;25.25;;;;;;;15.48;52.97;99539.28;5047251;28;20067;-69
2022/11/04 09:00:50;;;;;;;49.03;24.05;;;;;;;15.61;52.97;99543.59;5050906;28;20029;-65
2022/11/04 09:03:15;;;;;;;54.78;25.92;;;;;;;15.81;52.93;99536.03;5050695;28;20025;-65
2022/11/04 09:05:47;;;;;;;48.10;26.30;;;;;;;16.10;52.03;99536.66;5049470;28;20031;-65
2022/11/04 09:08:15;;;;;;;48.83;27.48;;;;;;;15.85;52.21;99525.63;5049530;28;20028;-66
2022/11/04 09:10:46;;;;;;;52.38;29.02;;;;;;;16.02;52.26;99519.97;5050719;28;20487;-66
2022/11/04 09:13:14;;;;;;;46.22;27.40;;;;;;;15.92;51.76;99521.34;5045154;28;20032;-66
2022/11/04 09:15:40;;;;;;;50.75;30.85;;;;;;;16.37;50.90;99513.41;5050738;28;20593;-66
2022/11/04 09:18:06;;;;;;;47.47;28.08;;;;;;;16.31;50.93;99512.06;5052463;28;20027;-66
2022/11/04 09:20:32;;;;;;;53.25;27.33;;;;;;;16.06;51.01;99515.19;5054219;28;20443;-69
2022/11/04 09:22:57;;;;;;;55.50;33.95;;;;;;;16.14;50.86;99514.97;5053078;28;20032;-73
2022/11/04 09:25:23;;;;;;;44.40;26.85;;;;;;;16.05;51.08;99511.56;5052441;28;20190;-69
2022/11/04 09:27:48;;;;;;;46.47;26.35;;;;;;;16.05;51.32;99511.56;5054248;28;20025;-70
2022/11/04 09:30:16;;;;;;;49.45;26.85;;;;;;;15.93;51.66;99500.44;5042599;28;20087;-68
2022/11/04 09:32:41;;;;;;;42.38;24.75;;;;;;;16.27;50.53;99497.88;5039420;28;20021;-67
2022/11/04 09:35:07;;;;;;;42.03;25.63;;;;;;;16.56;50.06;99485.13;5034241;28;20045;-66
2022/11/04 09:37:33;;;;;;;44.75;27.48;;;;;;;16.43;50.09;99483.66;5034200;28;20156;-67
2022/11/04 09:39:58;;;;;;;50.25;26.42;;;;;;;16.32;50.52;99472.19;5036779;28;20072;-67
2022/11/04 09:42:38;;;;;;;44.63;24.67;;;;;;;16.13;50.37;99473.84;5037966;28;20029;-70
2022/11/04 09:45:11;;;;;;;49.25;27.63;;;;;;;16.27;50.83;99469.66;5054093;28;20064;-66
2022/11/04 09:47:38;;;;;;;42.25;25.90;;;;;;;16.39;49.58;99463.03;5052746;28;20552;-67
2022/11/04 09:50:09;;;;;;;57.88;26.63;;;;;;;16.28;50.20;99458.00;5042385;28;20502;-66
2022/11/04 09:52:43;;;;;;;45.05;25.77;;;;;;;16.46;49.47;99453.88;5053558;28;20036;-67
2022/11/04 09:55:48;;;;;;;43.78;25.23;;;;;;;16.07;50.32;99455.59;5053771;28;20116;-69
2022/11/04 09:58:13;;;;;;;45.40;26.13;;;;;;;16.16;50.77;99446.88;5044499;28;20044;-68
2022/11/04 10:00:43;;;;;;;46.55;27.63;;;;;;;16.72;49.64;99441.84;5033036;28;20029;-66
2022/11/04 10:03:45;;;;;;;53.42;28.98;;;;;;;16.98;48.76;99432.56;5033442;28;20021;-68
2022/11/04 10:06:34;;;;;;;44.10;25.15;;;;;;;17.11;48.41;99430.38;5044951;28;20025;-68
2022/11/04 10:09:14;;;;;;;41.42;24.65;;;;;;;17.06;48.22;99427.84;5046015;28;20044;-69
2022/11/04 10:11:46;;;;;;;39.72;24.20;;;;;;;17.16;48.04;99426.41;5038310;28;20025;-69
2022/11/04 10:14:23;;;;;;;43.75;25.00;;;;;;;17.38;47.75;99421.88;5035755;28;20052;-70
2022/11/04 10:17:11;;;;;;;41.45;24.42;;;;;;;17.59;46.42;99414.03;5037696;28;20021;-67
2022/11/04 10:19:54;;;;;;;42.40;24.13;;;;;;;17.42;47.47;99415.44;5032767;28;20492;-67
2022/11/04 10:22:27;;;;;;;39.22;23.33;;;;;;;17.49;46.55;99402.22;5030085;28;20022;-67
2022/11/04 10:25:11;;;;;;;37.58;23.73;;;;;;;17.33;46.54;99390.28;5032890;28;20163;-70
2022/11/04 10:27:40;;;;;;;37.33;23.27;;;;;;;17.39;46.75;99400.88;5033742;28;20149;-69
2022/11/04 10:30:11;;;;;;;41.03;25.00;;;;;;;17.38;46.74;99398.44;5032126;28;20628;-69
2022/11/04 10:33:09;;;;;;;39.63;24.25;;;;;;;17.54;46.77;99379.25;5033376;28;20411;-69
2022/11/04 10:35:39;;;;;;;42.63;25.00;;;;;;;17.54;46.32;99372.78;5032368;28;20048;-68
2022/11/04 10:38:17;;;;;;;41.53;24.77;;;;;;;17.46;46.79;99357.75;5037088;28;20033;-68
2022/11/04 10:40:47;;;;;;;49.75;25.13;;;;;;;17.73;46.19;99349.16;5032096;28;20029;-68
2022/11/04 10:43:17;;;;;;;41.70;25.95;;;;;;;17.63;46.05;99361.19;5041670;28;20021;-66
2022/11/04 10:45:54;;;;;;;44.08;25.17;;;;;;;17.52;46.23;99363.88;5029241;28;20037;-68
2022/11/04 10:48:28;;;;;;;44.55;23.23;;;;;;;17.43;46.82;99361.34;5035595;28;20032;-70
2022/11/04 10:50:56;;;;;;;37.60;23.55;;;;;;;17.50;45.84;99350.16;5031322;28;20033;-69
2022/11/04 10:53:25;;;;;;;42.80;24.52;;;;;;;17.31;46.99;99342.59;5028938;28;20025;-66
2022/11/04 10:56:00;;;;;;;40.10;23.92;;;;;;;17.48;46.73;99337.59;5032212;28;20068;-68
2022/11/04 10:58:41;;;;;;;43.45;23.85;;;;;;;17.56;46.54;99325.16;5033073;28;20033;-70
2022/11/04 11:01:32;;;;;;;43.50;25.52;;;;;;;17.69;46.42;99337.00;5048519;28;20037;-68
2022/11/04 11:03:57;;;;;;;;;;;;;;;17.72;46.72;99339.06;5035643;28;20492;-68
2022/11/04 11:06:28;;;;;;;49.63;27.00;;;;;;;17.52;46.50;99336.44;5027869;28;19990;-69
2022/11/04 11:09:11;;;;;;;45.20;26.58;;;;;;;17.20;47.57;99325.53;5027715;28;20445;-66
2022/11/04 11:11:41;;;;;;;44.25;26.50;;;;;;;17.29;47.25;99327.25;5033922;28;20529;-67
2022/11/04 11:14:35;;;;;;;45.38;27.65;;;;;;;17.57;46.78;99317.47;5029791;28;20128;-67
2022/11/04 11:17:21;;;;;;;45.40;25.90;;;;;;;17.89;46.36;99317.03;5031084;28;20064;-68
2022/11/04 11:19:58;;;;;;;53.90;25.90;;;;;;;17.97;46.01;99313.03;5047293;28;20033;-68
2022/11/04 11:22:41;;;;;;;46.38;30.33;;;;;;;17.95;46.29;99304.97;5040059;28;20516;-69
2022/11/04 11:25:19;;;;;;;53.17;29.65;;;;;;;18.17;45.79;99308.03;5047988;28;20070;-70
2022/11/04 11:27:49;;;;;;;41.65;25.42;;;;;;;18.28;45.22;99304.44;5032968;28;20021;-69
2022/11/04 11:30:25;;;;;;;46.85;25.25;;;;;;;18.39;45.22;99299.69;5042331;28;20052;-70
2022/11/04 11:32:57;;;;;;;47.45;25.92;;;;;;;18.46;45.21;99293.25;5045729;28;20029;-68
2022/11/04 11:35:29;;;;;;;44.80;25.58;;;;;;;18.60;46.34;99287.72;5044984;28;20111;-69
2022/11/04 11:37:56;;;;;;;51.53;26.95;;;;;;;18.74;46.05;99283.34;5048546;28;20052;-69
2022/11/04 11:40:34;;;;;;;42.50;25.85;;;;;;;18.73;45.51;99281.72;5031148;28;20056;-70
2022/11/04 11:43:01;;;;;;;53.00;25.77;;;;;;;18.72;45.84;99282.94;5048775;28;20045;-69
2022/11/04 11:45:27;;;;;;;48.00;28.67;;;;;;;18.91;44.95;99274.13;5037700;28;20041;-67
2022/11/04 11:47:55;;;;;;;50.85;26.23;;;;;;;18.57;45.21;99273.53;5050031;28;20028;-67
2022/11/04 11:50:30;;;;;;;47.88;26.58;;;;;;;18.46;46.08;99264.94;5039301;28;20107;-68
2022/11/04 11:53:14;;;;;;;47.45;27.92;;;;;;;18.54;45.54;99252.47;5040287;28;20492;-67
2022/11/04 11:55:46;;;;;;;46.42;24.45;;;;;;;18.76;46.68;99258.25;5033925;28;20472;-70
2022/11/04 11:59:06;;;;;;;51.95;25.30;;;;;;;18.59;46.08;99254.94;5038810;28;20104;-68
2022/11/04 12:01:41;;;;;;;42.90;24.70;;;;;;;18.21;47.45;99252.25;4985314;28;20121;-69
2022/11/04 12:04:07;;;;;;;44.38;25.05;;;;;;;18.31;47.45;99238.56;4996748;28;20038;-68
2022/11/04 12:06:47;;;;;;;46.88;25.80;;;;;;;18.20;48.12;99236.47;5011120;28;20041;-71
2022/11/04 12:09:30;;;;;;;42.88;25.17;;;;;;;18.05;48.69;99227.06;5039532;28;20016;-71